sensor_id;sensor_type;location;lat;lon;timestamp;temperature;humidity
7455;HTU21D;3769;51.208;4.454;2024-01-11T00:02:23;-2.1;81
7455;HTU21D;3769;51.208;4.454;2024-01-11T00:07:23;-2;83.5
7455;HTU21D;3769;51.208;4.454;2024-01-11T00:12:23;-2;83.5
7455;HTU21D;3769;51.208;4.454;2024-01-11T00:17:23;-2;82.7
7455;HTU21D;3769;51.208;4.454;2024-01-11T00:22:23;-2.2;84.5
7455;HTU21D;3769;51.208;4.454;2024-01-11T00:27:23;-2.1;82.3
7455;HTU21D;3769;51.208;4.454;2024-01-11T00:32:23;-2.1;83.8
7455;HTU21D;3769;51.208;4.454;2024-01-11T00:37:23;-2.1;84.8
7455;HTU21D;3769;51.208;4.454;2024-01-11T00:42:23;-2;82.6
7455;HTU21D;3769;51.208;4.454;2024-01-11T00:47:23;-2.2;85.8
7455;HTU21D;3769;51.208;4.454;2024-01-11T00:52:23;-2.2;86.3
7455;HTU21D;3769;51.208;4.454;2024-01-11T00:57:23;-2.3;85.3
7455;HTU21D;3769;51.208;4.454;2024-01-11T01:02:23;-2.2;84.3
7455;HTU21D;3769;51.208;4.454;2024-01-11T01:07:23;-2.3;87.3
7455;HTU21D;3769;51.208;4.454;2024-01-11T01:12:23;-2.3;87
7455;HTU21D;3769;51.208;4.454;2024-01-11T01:17:23;-2.3;86.3
7455;HTU21D;3769;51.208;4.454;2024-01-11T01:22:23;-2.4;87.9
7455;HTU21D;3769;51.208;4.454;2024-01-11T01:27:23;-2.4;87.8
7455;HTU21D;3769;51.208;4.454;2024-01-11T01:32:23;-2.3;89
7455;HTU21D;3769;51.208;4.454;2024-01-11T01:37:23;-2.4;88.9
7455;HTU21D;3769;51.208;4.454;2024-01-11T01:42:23;-2.5;89
7455;HTU21D;3769;51.208;4.454;2024-01-11T01:47:23;-2.5;89.9
7455;HTU21D;3769;51.208;4.454;2024-01-11T01:52:23;-2.4;87
7455;HTU21D;3769;51.208;4.454;2024-01-11T01:57:23;-2.4;88.2
7455;HTU21D;3769;51.208;4.454;2024-01-11T02:02:23;-2.5;89.4
7455;HTU21D;3769;51.208;4.454;2024-01-11T02:07:23;-2.5;89
7455;HTU21D;3769;51.208;4.454;2024-01-11T02:12:23;-2.5;90.4
7455;HTU21D;3769;51.208;4.454;2024-01-11T02:17:23;-2.6;90.7
7455;HTU21D;3769;51.208;4.454;2024-01-11T02:22:24;-2.4;85.8
7455;HTU21D;3769;51.208;4.454;2024-01-11T02:27:23;-2.3;86.4
7455;HTU21D;3769;51.208;4.454;2024-01-11T02:32:23;-2.5;89.7
7455;HTU21D;3769;51.208;4.454;2024-01-11T02:37:23;-2.7;90.3
7455;HTU21D;3769;51.208;4.454;2024-01-11T02:42:23;-2.6;90.5
7455;HTU21D;3769;51.208;4.454;2024-01-11T02:47:23;-2.4;90.1
7455;HTU21D;3769;51.208;4.454;2024-01-11T02:52:23;-2.4;89.5
7455;HTU21D;3769;51.208;4.454;2024-01-11T02:57:23;-2.6;89.6
7455;HTU21D;3769;51.208;4.454;2024-01-11T03:02:23;-2.5;87.6
7455;HTU21D;3769;51.208;4.454;2024-01-11T03:07:23;-2.6;88.1
7455;HTU21D;3769;51.208;4.454;2024-01-11T03:12:23;-2.7;92.1
7455;HTU21D;3769;51.208;4.454;2024-01-11T03:17:54;-2.3;86.9
7455;HTU21D;3769;51.208;4.454;2024-01-11T03:22:54;-2.7;92.7
7455;HTU21D;3769;51.208;4.454;2024-01-11T03:27:54;-2.3;87.4
7455;HTU21D;3769;51.208;4.454;2024-01-11T03:32:54;-2.8;91.7
7455;HTU21D;3769;51.208;4.454;2024-01-11T03:37:54;-2.7;90.6
7455;HTU21D;3769;51.208;4.454;2024-01-11T03:42:54;-2.7;91.4
7455;HTU21D;3769;51.208;4.454;2024-01-11T03:47:54;-2.4;91.3
7455;HTU21D;3769;51.208;4.454;2024-01-11T03:52:54;-2.5;90.9
7455;HTU21D;3769;51.208;4.454;2024-01-11T03:57:54;-2.6;90.4
7455;HTU21D;3769;51.208;4.454;2024-01-11T04:02:54;-2.6;89.5
7455;HTU21D;3769;51.208;4.454;2024-01-11T04:07:54;-2.7;90.3
7455;HTU21D;3769;51.208;4.454;2024-01-11T04:12:54;-2.8;92.4
7455;HTU21D;3769;51.208;4.454;2024-01-11T04:17:54;-2.6;90.6
7455;HTU21D;3769;51.208;4.454;2024-01-11T04:22:54;-2.6;91.3
7455;HTU21D;3769;51.208;4.454;2024-01-11T04:27:54;-2.8;92.8
7455;HTU21D;3769;51.208;4.454;2024-01-11T04:32:54;-2.8;95.3
7455;HTU21D;3769;51.208;4.454;2024-01-11T04:37:54;-2.8;93.4
7455;HTU21D;3769;51.208;4.454;2024-01-11T04:42:54;-2.8;93.6
7455;HTU21D;3769;51.208;4.454;2024-01-11T04:47:54;-2.7;93.1
7455;HTU21D;3769;51.208;4.454;2024-01-11T04:52:54;-2.8;95
7455;HTU21D;3769;51.208;4.454;2024-01-11T04:57:54;-2.8;95.6
7455;HTU21D;3769;51.208;4.454;2024-01-11T05:02:54;-2.8;96
7455;HTU21D;3769;51.208;4.454;2024-01-11T05:07:54;-2.9;94.8
7455;HTU21D;3769;51.208;4.454;2024-01-11T05:12:54;-2.8;94.6
7455;HTU21D;3769;51.208;4.454;2024-01-11T05:17:55;-2.9;97.7
7455;HTU21D;3769;51.208;4.454;2024-01-11T05:22:54;-2.9;96.5
7455;HTU21D;3769;51.208;4.454;2024-01-11T05:27:54;-2.7;95.8
7455;HTU21D;3769;51.208;4.454;2024-01-11T05:32:54;-3;97.3
7455;HTU21D;3769;51.208;4.454;2024-01-11T05:37:54;-2.9;95
7455;HTU21D;3769;51.208;4.454;2024-01-11T05:42:54;-2.8;98
7455;HTU21D;3769;51.208;4.454;2024-01-11T05:47:54;-3;98.6
7455;HTU21D;3769;51.208;4.454;2024-01-11T05:52:54;-2.8;98.1
7455;HTU21D;3769;51.208;4.454;2024-01-11T05:57:54;-3.2;99.5
7455;HTU21D;3769;51.208;4.454;2024-01-11T06:02:54;-2.7;96.6
7455;HTU21D;3769;51.208;4.454;2024-01-11T06:07:54;-3.2;100
7455;HTU21D;3769;51.208;4.454;2024-01-11T06:12:54;-3;97.9
7455;HTU21D;3769;51.208;4.454;2024-01-11T06:17:54;-3.2;99.2
7455;HTU21D;3769;51.208;4.454;2024-01-11T06:22:54;-3.2;100
7455;HTU21D;3769;51.208;4.454;2024-01-11T06:27:54;-2.8;97.6
7455;HTU21D;3769;51.208;4.454;2024-01-11T06:32:54;-3;99.9
7455;HTU21D;3769;51.208;4.454;2024-01-11T06:37:54;-3.3;100
7455;HTU21D;3769;51.208;4.454;2024-01-11T06:42:54;-3.2;100
7455;HTU21D;3769;51.208;4.454;2024-01-11T06:47:54;-3.1;100
7455;HTU21D;3769;51.208;4.454;2024-01-11T06:52:54;-3.2;100
7455;HTU21D;3769;51.208;4.454;2024-01-11T06:57:54;-3.3;100
7455;HTU21D;3769;51.208;4.454;2024-01-11T07:02:54;-3.3;100
7455;HTU21D;3769;51.208;4.454;2024-01-11T07:07:54;-3.2;100
7455;HTU21D;3769;51.208;4.454;2024-01-11T07:12:54;-3.1;100
7455;HTU21D;3769;51.208;4.454;2024-01-11T07:17:54;-3.4;100
7455;HTU21D;3769;51.208;4.454;2024-01-11T07:22:54;-3.4;100
7455;HTU21D;3769;51.208;4.454;2024-01-11T07:27:54;-3.4;100
7455;HTU21D;3769;51.208;4.454;2024-01-11T07:32:54;-3.3;100
7455;HTU21D;3769;51.208;4.454;2024-01-11T07:37:54;-3.5;100
7455;HTU21D;3769;51.208;4.454;2024-01-11T07:42:54;-3.4;100
7455;HTU21D;3769;51.208;4.454;2024-01-11T07:47:54;-3.5;100
7455;HTU21D;3769;51.208;4.454;2024-01-11T07:52:54;-3.6;100
7455;HTU21D;3769;51.208;4.454;2024-01-11T07:57:54;-3.5;100
7455;HTU21D;3769;51.208;4.454;2024-01-11T08:02:54;-3.4;100
7455;HTU21D;3769;51.208;4.454;2024-01-11T08:07:54;-3.3;100
7455;HTU21D;3769;51.208;4.454;2024-01-11T08:12:54;-3.3;100
7455;HTU21D;3769;51.208;4.454;2024-01-11T08:17:54;-3.5;100
7455;HTU21D;3769;51.208;4.454;2024-01-11T08:22:54;-3.1;97.6
7455;HTU21D;3769;51.208;4.454;2024-01-11T08:27:54;-3.2;100
7455;HTU21D;3769;51.208;4.454;2024-01-11T08:32:54;-3.2;100
7455;HTU21D;3769;51.208;4.454;2024-01-11T08:37:54;-3.3;98.2
7455;HTU21D;3769;51.208;4.454;2024-01-11T08:42:54;-3.5;99.6
7455;HTU21D;3769;51.208;4.454;2024-01-11T08:47:56;-3.6;100
7455;HTU21D;3769;51.208;4.454;2024-01-11T08:52:54;-3.5;100
7455;HTU21D;3769;51.208;4.454;2024-01-11T08:57:54;-3.4;100
7455;HTU21D;3769;51.208;4.454;2024-01-11T09:02:54;-3.4;100
7455;HTU21D;3769;51.208;4.454;2024-01-11T09:07:54;-3.3;100
7455;HTU21D;3769;51.208;4.454;2024-01-11T09:12:54;-3;100
7455;HTU21D;3769;51.208;4.454;2024-01-11T09:17:54;-3;100
7455;HTU21D;3769;51.208;4.454;2024-01-11T09:22:54;-2.7;96.5
7455;HTU21D;3769;51.208;4.454;2024-01-11T09:27:54;-2.8;99.2
7455;HTU21D;3769;51.208;4.454;2024-01-11T09:32:54;-2.7;96.5
7455;HTU21D;3769;51.208;4.454;2024-01-11T09:37:54;-2.2;92
7455;HTU21D;3769;51.208;4.454;2024-01-11T09:42:54;-2.1;89.3
7455;HTU21D;3769;51.208;4.454;2024-01-11T09:47:54;-2.4;91.4
7455;HTU21D;3769;51.208;4.454;2024-01-11T09:52:54;-2.5;94.4
7455;HTU21D;3769;51.208;4.454;2024-01-11T09:57:56;-2.5;94.3
7455;HTU21D;3769;51.208;4.454;2024-01-11T10:02:54;-2.1;91.4
7455;HTU21D;3769;51.208;4.454;2024-01-11T10:07:54;-2.1;87.7
7455;HTU21D;3769;51.208;4.454;2024-01-11T10:12:54;-2.2;88.9
7455;HTU21D;3769;51.208;4.454;2024-01-11T10:17:54;-2.1;89.3
7455;HTU21D;3769;51.208;4.454;2024-01-11T10:22:54;-2.1;87.9
7455;HTU21D;3769;51.208;4.454;2024-01-11T10:27:54;-1.9;88.4
7455;HTU21D;3769;51.208;4.454;2024-01-11T10:32:54;-1.8;86.6
7455;HTU21D;3769;51.208;4.454;2024-01-11T10:37:54;-1.7;86.4
7455;HTU21D;3769;51.208;4.454;2024-01-11T10:42:54;-1.7;85.7
7455;HTU21D;3769;51.208;4.454;2024-01-11T10:47:55;-1.8;89.7
7455;HTU21D;3769;51.208;4.454;2024-01-11T10:53:03;-1.4;88.7
7455;HTU21D;3769;51.208;4.454;2024-01-11T10:57:54;-1.3;83.5
7455;HTU21D;3769;51.208;4.454;2024-01-11T11:02:54;-1.2;84
7455;HTU21D;3769;51.208;4.454;2024-01-11T11:07:54;-1.2;83.5
7455;HTU21D;3769;51.208;4.454;2024-01-11T11:12:54;-1.2;85.4
7455;HTU21D;3769;51.208;4.454;2024-01-11T11:17:55;-1.2;85.4
7455;HTU21D;3769;51.208;4.454;2024-01-11T11:23:10;-1.1;86.2
7455;HTU21D;3769;51.208;4.454;2024-01-11T11:27:54;-0.6;84.5
7455;HTU21D;3769;51.208;4.454;2024-01-11T11:32:54;-0.6;84.5
7455;HTU21D;3769;51.208;4.454;2024-01-11T11:37:55;-0.4;81
7455;HTU21D;3769;51.208;4.454;2024-01-11T11:42:54;-0.4;79.4
7455;HTU21D;3769;51.208;4.454;2024-01-11T11:47:54;-0.4;79.9
7455;HTU21D;3769;51.208;4.454;2024-01-11T11:52:55;-0.5;83.1
7455;HTU21D;3769;51.208;4.454;2024-01-11T11:57:54;-0.3;81.1
7455;HTU21D;3769;51.208;4.454;2024-01-11T12:02:54;-0.2;82.4
7455;HTU21D;3769;51.208;4.454;2024-01-11T12:07:54;0.1;74.7
7455;HTU21D;3769;51.208;4.454;2024-01-11T12:12:54;0.2;74.1
7455;HTU21D;3769;51.208;4.454;2024-01-11T12:17:58;-0.1;81.2
7455;HTU21D;3769;51.208;4.454;2024-01-11T12:22:54;0.1;75.2
7455;HTU21D;3769;51.208;4.454;2024-01-11T12:27:54;0.3;73.7
7455;HTU21D;3769;51.208;4.454;2024-01-11T12:32:54;0.1;75.3
7455;HTU21D;3769;51.208;4.454;2024-01-11T12:37:55;0.2;74.3
7455;HTU21D;3769;51.208;4.454;2024-01-11T12:42:54;0.3;74.7
7455;HTU21D;3769;51.208;4.454;2024-01-11T12:47:55;0.5;69.4
7455;HTU21D;3769;51.208;4.454;2024-01-11T12:53:10;0.4;70.5
7455;HTU21D;3769;51.208;4.454;2024-01-11T12:58:10;0.7;67.8
7455;HTU21D;3769;51.208;4.454;2024-01-11T13:02:54;0.6;67.9
7455;HTU21D;3769;51.208;4.454;2024-01-11T13:07:54;0.6;66.4
7455;HTU21D;3769;51.208;4.454;2024-01-11T13:12:55;0.5;66.8
7455;HTU21D;3769;51.208;4.454;2024-01-11T13:17:55;0.9;64.5
7455;HTU21D;3769;51.208;4.454;2024-01-11T13:23:26;0.8;65.5
7455;HTU21D;3769;51.208;4.454;2024-01-11T13:27:54;0.8;64.7
7455;HTU21D;3769;51.208;4.454;2024-01-11T13:32:54;0.6;65.1
7455;HTU21D;3769;51.208;4.454;2024-01-11T13:37:54;0.6;66.1
7455;HTU21D;3769;51.208;4.454;2024-01-11T13:42:54;0.7;66.1
7455;HTU21D;3769;51.208;4.454;2024-01-11T13:47:54;0.6;69.2
7455;HTU21D;3769;51.208;4.454;2024-01-11T13:52:54;0.5;73.6
7455;HTU21D;3769;51.208;4.454;2024-01-11T13:57:54;0.7;76.5
7455;HTU21D;3769;51.208;4.454;2024-01-11T14:02:54;0.9;80.3
7455;HTU21D;3769;51.208;4.454;2024-01-11T14:07:54;0.7;85.8
7455;HTU21D;3769;51.208;4.454;2024-01-11T14:12:54;0.7;91.3
7455;HTU21D;3769;51.208;4.454;2024-01-11T14:17:54;0.7;96.4
7455;HTU21D;3769;51.208;4.454;2024-01-11T14:22:54;0.6;96.3
7455;HTU21D;3769;51.208;4.454;2024-01-11T14:27:54;0.6;96.3
7455;HTU21D;3769;51.208;4.454;2024-01-11T14:32:54;0.5;96.3
7455;HTU21D;3769;51.208;4.454;2024-01-11T14:37:54;0.5;96.3
7455;HTU21D;3769;51.208;4.454;2024-01-11T14:42:54;0.8;96.4
7455;HTU21D;3769;51.208;4.454;2024-01-11T14:47:54;0.7;96.4
7455;HTU21D;3769;51.208;4.454;2024-01-11T14:52:54;0.7;96.4
7455;HTU21D;3769;51.208;4.454;2024-01-11T14:57:54;0.8;96.4
7455;HTU21D;3769;51.208;4.454;2024-01-11T15:02:55;0.9;96.4
7455;HTU21D;3769;51.208;4.454;2024-01-11T15:07:54;0.9;96.4
7455;HTU21D;3769;51.208;4.454;2024-01-11T15:12:54;0.8;96.4
7455;HTU21D;3769;51.208;4.454;2024-01-11T15:17:54;0.8;96.4
7455;HTU21D;3769;51.208;4.454;2024-01-11T15:22:54;0.8;96.4
7455;HTU21D;3769;51.208;4.454;2024-01-11T15:27:54;0.8;96.4
7455;HTU21D;3769;51.208;4.454;2024-01-11T15:32:54;0.9;96.4
7455;HTU21D;3769;51.208;4.454;2024-01-11T15:37:54;1.1;96.4
7455;HTU21D;3769;51.208;4.454;2024-01-11T15:42:54;1;96.4
7455;HTU21D;3769;51.208;4.454;2024-01-11T15:47:54;0.8;96.4
7455;HTU21D;3769;51.208;4.454;2024-01-11T15:52:54;0.8;96.4
7455;HTU21D;3769;51.208;4.454;2024-01-11T15:57:54;1.2;96.4
7455;HTU21D;3769;51.208;4.454;2024-01-11T16:02:54;1;96.4
7455;HTU21D;3769;51.208;4.454;2024-01-11T16:07:54;0.9;96.4
7455;HTU21D;3769;51.208;4.454;2024-01-11T16:12:54;1.3;96.5
7455;HTU21D;3769;51.208;4.454;2024-01-11T16:17:54;1.2;96.4
7455;HTU21D;3769;51.208;4.454;2024-01-11T16:22:54;1.1;96.4
7455;HTU21D;3769;51.208;4.454;2024-01-11T16:27:54;0.9;96.4
7455;HTU21D;3769;51.208;4.454;2024-01-11T16:32:54;1;96.4
7455;HTU21D;3769;51.208;4.454;2024-01-11T16:37:54;1;96.4
7455;HTU21D;3769;51.208;4.454;2024-01-11T16:42:54;1.2;96.4
7455;HTU21D;3769;51.208;4.454;2024-01-11T16:47:54;1.1;96.4
7455;HTU21D;3769;51.208;4.454;2024-01-11T16:52:54;1.2;96.4
7455;HTU21D;3769;51.208;4.454;2024-01-11T16:57:54;1.2;96.4
7455;HTU21D;3769;51.208;4.454;2024-01-11T17:02:54;1.2;96.4
7455;HTU21D;3769;51.208;4.454;2024-01-11T17:07:54;1.2;96.4
7455;HTU21D;3769;51.208;4.454;2024-01-11T17:12:54;1.2;96.4
7455;HTU21D;3769;51.208;4.454;2024-01-11T17:17:54;1.1;96.4
7455;HTU21D;3769;51.208;4.454;2024-01-11T17:22:54;1.2;96.4
7455;HTU21D;3769;51.208;4.454;2024-01-11T17:27:54;1.3;96.4
7455;HTU21D;3769;51.208;4.454;2024-01-11T17:32:54;1.2;96.4
7455;HTU21D;3769;51.208;4.454;2024-01-11T17:37:54;1.3;96.4
7455;HTU21D;3769;51.208;4.454;2024-01-11T17:42:56;1.3;96.4
7455;HTU21D;3769;51.208;4.454;2024-01-11T17:47:54;1.5;96.5
7455;HTU21D;3769;51.208;4.454;2024-01-11T17:52:54;1.7;96.5
7455;HTU21D;3769;51.208;4.454;2024-01-11T17:57:54;1.7;96.5
7455;HTU21D;3769;51.208;4.454;2024-01-11T18:02:54;1.8;96.5
7455;HTU21D;3769;51.208;4.454;2024-01-11T18:07:56;2;96.5
7455;HTU21D;3769;51.208;4.454;2024-01-11T18:12:54;1.6;96.5
7455;HTU21D;3769;51.208;4.454;2024-01-11T18:17:54;1.7;96.5
7455;HTU21D;3769;51.208;4.454;2024-01-11T18:22:54;1.6;96.5
7455;HTU21D;3769;51.208;4.454;2024-01-11T18:27:54;1.6;96.5
7455;HTU21D;3769;51.208;4.454;2024-01-11T18:32:54;1.8;96.5
7455;HTU21D;3769;51.208;4.454;2024-01-11T18:37:54;1.7;96.5
7455;HTU21D;3769;51.208;4.454;2024-01-11T18:42:54;1.5;96.5
7455;HTU21D;3769;51.208;4.454;2024-01-11T18:47:54;1.5;96.5
7455;HTU21D;3769;51.208;4.454;2024-01-11T18:52:55;1.5;96.5
7455;HTU21D;3769;51.208;4.454;2024-01-11T18:57:54;1.9;96.5
7455;HTU21D;3769;51.208;4.454;2024-01-11T19:02:54;1.6;96.5
7455;HTU21D;3769;51.208;4.454;2024-01-11T19:07:54;1.6;96.5
7455;HTU21D;3769;51.208;4.454;2024-01-11T19:12:54;1.6;96.5
7455;HTU21D;3769;51.208;4.454;2024-01-11T19:17:54;1.7;96.5
7455;HTU21D;3769;51.208;4.454;2024-01-11T19:22:54;1.6;96.5
7455;HTU21D;3769;51.208;4.454;2024-01-11T19:27:54;1.8;96.5
7455;HTU21D;3769;51.208;4.454;2024-01-11T19:32:54;1.6;96.5
7455;HTU21D;3769;51.208;4.454;2024-01-11T19:37:54;1.8;96.5
7455;HTU21D;3769;51.208;4.454;2024-01-11T19:42:54;1.7;96.5
7455;HTU21D;3769;51.208;4.454;2024-01-11T19:47:55;1.7;96.5
7455;HTU21D;3769;51.208;4.454;2024-01-11T19:52:54;1.7;96.5
7455;HTU21D;3769;51.208;4.454;2024-01-11T19:57:55;1.6;96.5
7455;HTU21D;3769;51.208;4.454;2024-01-11T20:02:54;2;96.5
7455;HTU21D;3769;51.208;4.454;2024-01-11T20:07:54;2.1;96.6
7455;HTU21D;3769;51.208;4.454;2024-01-11T20:12:54;1.9;96.5
7455;HTU21D;3769;51.208;4.454;2024-01-11T20:17:54;2;96.5
7455;HTU21D;3769;51.208;4.454;2024-01-11T20:22:54;1.7;96.5
7455;HTU21D;3769;51.208;4.454;2024-01-11T20:27:54;1.6;96.5
7455;HTU21D;3769;51.208;4.454;2024-01-11T20:32:54;2;96.5
7455;HTU21D;3769;51.208;4.454;2024-01-11T20:37:54;1.8;96.5
7455;HTU21D;3769;51.208;4.454;2024-01-11T20:42:54;1.9;96.5
7455;HTU21D;3769;51.208;4.454;2024-01-11T20:47:54;1.8;96.5
7455;HTU21D;3769;51.208;4.454;2024-01-11T20:52:55;2;96.5
7455;HTU21D;3769;51.208;4.454;2024-01-11T20:57:54;1.8;96.5
7455;HTU21D;3769;51.208;4.454;2024-01-11T21:02:54;1.8;96.5
7455;HTU21D;3769;51.208;4.454;2024-01-11T21:07:54;1.9;96.5
7455;HTU21D;3769;51.208;4.454;2024-01-11T21:12:54;1.8;96.5
7455;HTU21D;3769;51.208;4.454;2024-01-11T21:17:54;1.8;96.5
7455;HTU21D;3769;51.208;4.454;2024-01-11T21:22:54;1.8;96.5
7455;HTU21D;3769;51.208;4.454;2024-01-11T21:27:55;2;96.5
7455;HTU21D;3769;51.208;4.454;2024-01-11T21:32:54;1.9;96.5
7455;HTU21D;3769;51.208;4.454;2024-01-11T21:37:54;1.9;96.5
7455;HTU21D;3769;51.208;4.454;2024-01-11T21:42:54;1.9;96.5
7455;HTU21D;3769;51.208;4.454;2024-01-11T21:47:54;2;96.6
7455;HTU21D;3769;51.208;4.454;2024-01-11T21:52:54;2;96.6
7455;HTU21D;3769;51.208;4.454;2024-01-11T21:57:54;2;96.6
7455;HTU21D;3769;51.208;4.454;2024-01-11T22:02:54;2;96.5
7455;HTU21D;3769;51.208;4.454;2024-01-11T22:07:54;2.1;96.6
7455;HTU21D;3769;51.208;4.454;2024-01-11T22:12:54;2.1;96.6
7455;HTU21D;3769;51.208;4.454;2024-01-11T22:17:54;2;96.5
7455;HTU21D;3769;51.208;4.454;2024-01-11T22:22:55;2;96.5
7455;HTU21D;3769;51.208;4.454;2024-01-11T22:27:54;2.3;96.6
7455;HTU21D;3769;51.208;4.454;2024-01-11T22:32:55;2.1;96.6
7455;HTU21D;3769;51.208;4.454;2024-01-11T22:37:54;2.4;96.6
7455;HTU21D;3769;51.208;4.454;2024-01-11T22:42:54;2.1;96.6
7455;HTU21D;3769;51.208;4.454;2024-01-11T22:47:54;2.1;96.6
7455;HTU21D;3769;51.208;4.454;2024-01-11T22:52:55;2.2;96.6
7455;HTU21D;3769;51.208;4.454;2024-01-11T22:57:54;2.1;96.6
7455;HTU21D;3769;51.208;4.454;2024-01-11T23:02:54;2.2;96.6
7455;HTU21D;3769;51.208;4.454;2024-01-11T23:07:54;2.2;96.6
7455;HTU21D;3769;51.208;4.454;2024-01-11T23:12:54;2.2;96.6
7455;HTU21D;3769;51.208;4.454;2024-01-11T23:17:54;2.2;96.6
7455;HTU21D;3769;51.208;4.454;2024-01-11T23:22:55;2.2;96.6
7455;HTU21D;3769;51.208;4.454;2024-01-11T23:27:54;2.3;96.6
7455;HTU21D;3769;51.208;4.454;2024-01-11T23:32:54;2.4;96.6
7455;HTU21D;3769;51.208;4.454;2024-01-11T23:37:54;2.3;96.6
7455;HTU21D;3769;51.208;4.454;2024-01-11T23:42:54;2.3;96.6
7455;HTU21D;3769;51.208;4.454;2024-01-11T23:47:54;2.3;96.6
7455;HTU21D;3769;51.208;4.454;2024-01-11T23:52:55;2.3;96.6
7455;HTU21D;3769;51.208;4.454;2024-01-11T23:57:54;2.5;96.6
